createdAt,value
2023-05-08T00:04:11.897Z,15.64
2023-05-08T00:09:16.503Z,15.53
2023-05-08T00:14:19.695Z,15.46
2023-05-08T00:19:22.680Z,15.37
2023-05-08T00:24:27.018Z,15.29
2023-05-08T00:29:30.021Z,15.33
2023-05-08T00:34:33.245Z,15.26
2023-05-08T00:39:37.595Z,15.21
2023-05-08T00:44:41.330Z,15.03
2023-05-08T00:49:44.915Z,14.96
2023-05-08T00:54:50.535Z,14.92
2023-05-08T00:59:54.120Z,14.92
2023-05-08T01:04:58.046Z,14.82
2023-05-08T01:10:02.972Z,14.70
2023-05-08T01:15:17.010Z,14.60
2023-05-08T01:20:33.595Z,14.38
2023-05-08T01:25:58.390Z,14.42
2023-05-08T01:31:09.342Z,14.29
2023-05-08T01:36:21.806Z,14.24
2023-05-08T01:41:29.007Z,14.20
2023-05-08T01:46:34.139Z,14.15
2023-05-08T01:51:42.764Z,14.09
2023-05-08T01:56:49.016Z,14.04
2023-05-08T02:01:56.921Z,13.95
2023-05-08T02:07:02.180Z,13.91
2023-05-08T02:12:08.299Z,13.81
2023-05-08T02:17:13.824Z,13.78
2023-05-08T02:22:19.420Z,13.65
2023-05-08T02:27:24.141Z,13.54
2023-05-08T02:32:29.295Z,13.58
2023-05-08T02:37:35.265Z,13.57
2023-05-08T02:42:38.416Z,13.53
2023-05-08T02:47:48.805Z,13.48
2023-05-08T02:52:56.837Z,13.36
2023-05-08T02:58:09.193Z,13.52
2023-05-08T03:03:19.612Z,13.66
2023-05-08T03:08:28.980Z,13.70
2023-05-08T03:13:35.932Z,13.65
2023-05-08T03:18:48.141Z,13.64
2023-05-08T03:23:56.223Z,13.72
2023-05-08T03:29:00.903Z,13.70
2023-05-08T03:34:09.622Z,13.69
2023-05-08T03:39:14.763Z,13.69
2023-05-08T03:44:19.052Z,13.72
2023-05-08T03:49:25.240Z,13.72
2023-05-08T03:54:30.381Z,13.83
2023-05-08T03:59:44.038Z,13.79
2023-05-08T04:04:51.284Z,13.82
2023-05-08T04:10:04.847Z,13.99
2023-05-08T04:15:15.518Z,14.17
2023-05-08T04:20:23.397Z,14.30
2023-05-08T04:25:29.913Z,14.33
2023-05-08T04:30:33.448Z,14.47
2023-05-08T04:35:37.078Z,14.45
2023-05-08T04:40:41.763Z,14.54
2023-05-08T04:45:47.280Z,14.59
2023-05-08T04:50:54.016Z,14.60
2023-05-08T04:55:59.406Z,14.64
2023-05-08T05:01:03.841Z,14.74
2023-05-08T05:06:08.064Z,14.72
2023-05-08T05:11:12.582Z,14.80
2023-05-08T05:16:15.733Z,14.76
2023-05-08T05:21:18.957Z,14.90
2023-05-08T05:26:23.915Z,15.05
2023-05-08T05:31:27.255Z,15.16
2023-05-08T05:36:32.659Z,15.26
2023-05-08T05:41:37.357Z,15.37
2023-05-08T05:46:42.780Z,15.31
2023-05-08T05:51:49.608Z,15.39
2023-05-08T05:56:55.018Z,15.51
2023-05-08T06:01:58.155Z,15.75
2023-05-08T06:07:01.172Z,15.99
2023-05-08T06:12:06.650Z,16.13
2023-05-08T06:17:10.008Z,16.39
2023-05-08T06:22:13.139Z,16.59
2023-05-08T06:27:17.683Z,16.96
2023-05-08T06:32:21.276Z,16.90
2023-05-08T06:37:24.472Z,16.94
2023-05-08T06:42:28.887Z,17.07
2023-05-08T06:47:31.994Z,16.95
2023-05-08T06:52:35.011Z,17.04
2023-05-08T06:57:39.349Z,17.28
2023-05-08T07:02:42.359Z,17.81
2023-05-08T07:07:45.576Z,17.94
2023-05-08T07:12:52.864Z,17.91
2023-05-08T07:17:56.008Z,17.94
2023-05-08T07:22:59.100Z,17.89
2023-05-08T07:28:03.843Z,18.10
2023-05-08T07:33:06.919Z,18.79
2023-05-08T07:38:11.206Z,19.14
2023-05-08T07:43:15.558Z,19.63
2023-05-08T07:48:18.650Z,19.76
2023-05-08T07:53:21.878Z,20.08
2023-05-08T07:58:27.052Z,20.40
2023-05-08T08:03:30.563Z,20.43
2023-05-08T08:08:36.769Z,20.43
2023-05-08T08:13:41.085Z,20.48
2023-05-08T08:18:44.058Z,20.47
2023-05-08T08:23:47.219Z,21.10
2023-05-08T08:28:51.874Z,21.70
2023-05-08T08:33:55.373Z,21.97
2023-05-08T08:38:58.468Z,22.16
2023-05-08T08:44:02.935Z,22.35
2023-05-08T08:49:08.977Z,22.19
2023-05-08T08:54:17.505Z,22.34
2023-05-08T08:59:24.815Z,22.46
2023-05-08T09:04:29.698Z,22.68
2023-05-08T09:09:36.106Z,23.16
2023-05-08T09:14:40.492Z,23.34
2023-05-08T09:19:44.932Z,22.78
2023-05-08T09:24:59.435Z,23.13
2023-05-08T09:30:06.136Z,23.07
2023-05-08T09:35:11.352Z,23.39
2023-05-08T09:40:18.916Z,23.08
2023-05-08T09:45:30.140Z,23.08
2023-05-08T09:50:33.628Z,22.39
2023-05-08T09:55:48.332Z,22.60
2023-05-08T10:00:52.738Z,23.05
2023-05-08T10:05:55.941Z,22.98
2023-05-08T10:11:14.947Z,23.35
2023-05-08T10:16:20.173Z,23.95
2023-05-08T10:21:24.795Z,23.51
2023-05-08T10:26:32.611Z,23.38
2023-05-08T10:31:42.244Z,23.62
2023-05-08T10:36:47.401Z,23.78
2023-05-08T10:41:51.518Z,23.97
2023-05-08T10:47:01.588Z,24.02
2023-05-08T10:52:17.578Z,24.13
2023-05-08T10:57:21.007Z,24.12
2023-05-08T11:02:30.390Z,24.82
2023-05-08T11:07:54.566Z,24.99
2023-05-08T11:12:59.094Z,25.38
2023-05-08T11:18:05.377Z,25.79
2023-05-08T11:23:23.888Z,25.65
2023-05-08T11:28:26.926Z,25.16
2023-05-08T11:33:38.047Z,25.12
2023-05-08T11:38:43.614Z,25.33
2023-05-08T11:44:16.688Z,25.36
2023-05-08T11:49:25.973Z,25.21
2023-05-08T11:54:32.014Z,25.30
2023-05-08T11:59:37.214Z,25.68
2023-05-08T12:04:48.516Z,25.41
2023-05-08T12:09:52.471Z,25.51
2023-05-08T12:14:55.839Z,25.22
2023-05-08T12:20:11.255Z,25.15
2023-05-08T12:25:15.426Z,25.62
2023-05-08T12:30:19.482Z,25.98
2023-05-08T12:35:24.342Z,25.65
2023-05-08T12:40:28.960Z,25.48
2023-05-08T12:45:36.906Z,25.28
2023-05-08T12:50:42.791Z,25.21
2023-05-08T12:55:53.080Z,25.32
2023-05-08T13:01:07.511Z,25.41
2023-05-08T13:06:22.677Z,25.13
2023-05-08T13:11:34.326Z,25.04
2023-05-08T13:16:47.848Z,25.20
2023-05-08T13:21:52.928Z,25.29
2023-05-08T13:26:56.155Z,25.07
2023-05-08T13:31:59.447Z,25.21
2023-05-08T13:37:03.940Z,24.97
2023-05-08T13:42:07.110Z,25.01
2023-05-08T13:47:11.107Z,25.71
2023-05-08T13:52:15.585Z,25.68
2023-05-08T13:57:18.912Z,25.60
2023-05-08T14:02:22.073Z,25.23
2023-05-08T14:07:28.219Z,25.01
2023-05-08T14:12:33.399Z,25.03
2023-05-08T14:17:36.733Z,24.80
2023-05-08T14:22:41.567Z,24.65
2023-05-08T14:27:44.626Z,24.79
2023-05-08T14:32:47.737Z,24.82
2023-05-08T14:37:53.310Z,24.58
2023-05-08T14:42:56.295Z,24.74
2023-05-08T14:47:59.387Z,24.82
2023-05-08T14:53:03.984Z,24.60
2023-05-08T14:58:09.504Z,24.81
2023-05-08T15:03:15.956Z,25.02
2023-05-08T15:08:20.669Z,24.63
2023-05-08T15:13:23.677Z,24.84
2023-05-08T15:18:28.535Z,24.67
2023-05-08T15:23:32.953Z,24.90
2023-05-08T15:28:36.562Z,24.18
2023-05-08T15:33:44.571Z,24.32
2023-05-08T15:38:53.962Z,24.10
2023-05-08T15:43:57.177Z,24.10
2023-05-08T15:49:02.573Z,24.19
2023-05-08T15:54:07.730Z,23.90
2023-05-08T15:59:10.938Z,23.47
2023-05-08T16:04:14.498Z,23.93
2023-05-08T16:09:19.073Z,23.98
2023-05-08T16:14:22.186Z,23.95
2023-05-08T16:19:25.229Z,24.03
2023-05-08T16:24:30.019Z,23.80
2023-05-08T16:29:33.428Z,23.74
2023-05-08T16:34:36.789Z,22.77
2023-05-08T16:39:41.287Z,22.61
2023-05-08T16:44:44.289Z,22.04
2023-05-08T16:49:47.486Z,22.03
2023-05-08T16:54:52.126Z,21.80
2023-05-08T16:59:55.255Z,21.52
2023-05-08T17:04:58.594Z,21.06
2023-05-08T17:10:03.212Z,20.63
2023-05-08T17:15:07.537Z,20.61
2023-05-08T17:20:13.262Z,20.80
2023-05-08T17:25:17.997Z,20.82
2023-05-08T17:30:20.962Z,20.53
2023-05-08T17:35:24.301Z,20.29
2023-05-08T17:40:28.955Z,20.12
2023-05-08T17:45:33.527Z,19.92
2023-05-08T17:50:39.541Z,19.94
2023-05-08T17:55:44.497Z,19.76
2023-05-08T18:00:47.617Z,19.54
2023-05-08T18:05:50.936Z,19.51
2023-05-08T18:10:56.686Z,19.47
2023-05-08T18:16:01.093Z,19.38
2023-05-08T18:21:04.402Z,19.40
2023-05-08T18:26:08.941Z,19.34
2023-05-08T18:31:12.231Z,19.21
2023-05-08T18:36:15.392Z,19.23
2023-05-08T18:41:19.900Z,19.09
2023-05-08T18:46:23.059Z,19.01
2023-05-08T18:51:26.093Z,18.87
2023-05-08T18:56:30.740Z,18.81
2023-05-08T19:01:35.696Z,18.71
2023-05-08T19:06:38.953Z,18.55
2023-05-08T19:11:44.017Z,18.26
2023-05-08T19:16:51.667Z,18.17
2023-05-08T19:21:54.773Z,18.07
2023-05-08T19:26:59.425Z,17.96
2023-05-08T19:32:04.466Z,17.84
2023-05-08T19:37:07.569Z,17.77
2023-05-08T19:42:14.235Z,17.81
2023-05-08T19:47:17.652Z,17.84
2023-05-08T19:52:20.937Z,17.74
2023-05-08T19:57:25.203Z,17.55
2023-05-08T20:02:28.336Z,17.62
2023-05-08T20:07:31.405Z,17.74
2023-05-08T20:12:38.064Z,17.75
2023-05-08T20:17:41.153Z,17.77
2023-05-08T20:22:44.160Z,17.70
2023-05-08T20:27:48.551Z,17.66
2023-05-08T20:32:51.699Z,17.59
2023-05-08T20:37:54.753Z,17.56
2023-05-08T20:42:59.410Z,17.55
2023-05-08T20:48:06.366Z,17.36
2023-05-08T20:53:17.114Z,17.34
2023-05-08T20:58:24.549Z,17.35
2023-05-08T21:03:27.944Z,17.07
2023-05-08T21:08:32.292Z,17.34
2023-05-08T21:13:39.948Z,17.29
2023-05-08T21:18:43.032Z,17.24
2023-05-08T21:23:46.209Z,17.13
2023-05-08T21:28:52.394Z,17.15
2023-05-08T21:33:55.570Z,17.20
2023-05-08T21:38:58.694Z,17.21
2023-05-08T21:44:05.789Z,17.17
2023-05-08T21:49:09.192Z,17.05
2023-05-08T21:54:12.528Z,17.00
2023-05-08T21:59:18.588Z,16.95
2023-05-08T22:04:21.749Z,16.87
2023-05-08T22:09:25.071Z,16.76
2023-05-08T22:14:30.895Z,16.62
2023-05-08T22:19:35.315Z,16.63
2023-05-08T22:24:38.749Z,16.57
2023-05-08T22:29:43.236Z,16.55
2023-05-08T22:34:49.903Z,16.51
2023-05-08T22:39:53.183Z,16.47
2023-05-08T22:44:58.003Z,16.43
2023-05-08T22:50:01.148Z,16.36
2023-05-08T22:55:06.690Z,16.29
2023-05-08T23:00:12.774Z,16.14
2023-05-08T23:05:16.027Z,16.12
2023-05-08T23:10:19.409Z,16.07
2023-05-08T23:15:23.960Z,16.04
2023-05-08T23:20:27.222Z,16.02
2023-05-08T23:25:30.273Z,15.99
2023-05-08T23:30:34.641Z,15.98
2023-05-08T23:35:37.738Z,15.97
2023-05-08T23:40:40.708Z,15.93
2023-05-08T23:45:45.168Z,15.94
2023-05-08T23:50:50.482Z,15.92
2023-05-08T23:55:53.519Z,15.88
